sensor_id;sensor_type;location;lat;lon;timestamp;P1;durP1;ratioP1;P2;durP2;ratioP2
69083;SDS011;56185;48.526;9.044;2023-07-29T00:00:24;6.33;;;2.10;;
69083;SDS011;56185;48.526;9.044;2023-07-29T00:02:49;3.23;;;2.50;;
69083;SDS011;56185;48.526;9.044;2023-07-29T00:05:14;4.00;;;2.10;;
69083;SDS011;56185;48.526;9.044;2023-07-29T00:07:40;4.87;;;2.20;;
69083;SDS011;56185;48.526;9.044;2023-07-29T00:10:05;6.43;;;2.40;;
69083;SDS011;56185;48.526;9.044;2023-07-29T00:12:31;5.38;;;2.78;;
69083;SDS011;56185;48.526;9.044;2023-07-29T00:14:56;4.10;;;2.60;;
69083;SDS011;56185;48.526;9.044;2023-07-29T00:17:22;4.30;;;2.63;;
69083;SDS011;56185;48.526;9.044;2023-07-29T00:19:47;6.22;;;2.70;;
69083;SDS011;56185;48.526;9.044;2023-07-29T00:22:12;6.07;;;3.07;;
69083;SDS011;56185;48.526;9.044;2023-07-29T00:24:39;7.47;;;3.40;;
69083;SDS011;56185;48.526;9.044;2023-07-29T00:27:05;5.25;;;3.15;;
69083;SDS011;56185;48.526;9.044;2023-07-29T00:29:30;8.45;;;3.40;;
69083;SDS011;56185;48.526;9.044;2023-07-29T00:31:55;5.63;;;3.00;;
69083;SDS011;56185;48.526;9.044;2023-07-29T00:34:20;6.57;;;2.73;;
69083;SDS011;56185;48.526;9.044;2023-07-29T00:36:46;4.47;;;2.05;;
69083;SDS011;56185;48.526;9.044;2023-07-29T00:39:11;5.07;;;3.00;;
69083;SDS011;56185;48.526;9.044;2023-07-29T00:41:36;3.58;;;2.63;;
69083;SDS011;56185;48.526;9.044;2023-07-29T00:44:02;4.80;;;2.70;;
69083;SDS011;56185;48.526;9.044;2023-07-29T00:46:27;4.35;;;2.85;;
69083;SDS011;56185;48.526;9.044;2023-07-29T00:48:53;3.50;;;2.50;;
69083;SDS011;56185;48.526;9.044;2023-07-29T00:51:18;4.22;;;2.63;;
69083;SDS011;56185;48.526;9.044;2023-07-29T00:53:44;4.82;;;2.67;;
69083;SDS011;56185;48.526;9.044;2023-07-29T00:56:09;4.28;;;2.58;;
69083;SDS011;56185;48.526;9.044;2023-07-29T00:58:34;6.10;;;2.90;;
69083;SDS011;56185;48.526;9.044;2023-07-29T01:01:00;6.17;;;2.63;;
69083;SDS011;56185;48.526;9.044;2023-07-29T01:03:25;6.50;;;2.97;;
69083;SDS011;56185;48.526;9.044;2023-07-29T01:05:56;5.35;;;3.13;;
69083;SDS011;56185;48.526;9.044;2023-07-29T01:08:42;7.43;;;3.28;;
69083;SDS011;56185;48.526;9.044;2023-07-29T01:16:31;5.72;;;2.72;;
69083;SDS011;56185;48.526;9.044;2023-07-29T01:19:06;8.18;;;3.15;;
69083;SDS011;56185;48.526;9.044;2023-07-29T01:21:31;6.57;;;2.90;;
69083;SDS011;56185;48.526;9.044;2023-07-29T01:23:58;6.30;;;2.63;;
69083;SDS011;56185;48.526;9.044;2023-07-29T01:26:23;7.75;;;2.60;;
69083;SDS011;56185;48.526;9.044;2023-07-29T01:28:48;6.20;;;2.50;;
69083;SDS011;56185;48.526;9.044;2023-07-29T01:31:20;8.50;;;3.07;;
69083;SDS011;56185;48.526;9.044;2023-07-29T01:34:04;6.65;;;2.60;;
69083;SDS011;56185;48.526;9.044;2023-07-29T01:36:34;3.85;;;2.50;;
69083;SDS011;56185;48.526;9.044;2023-07-29T01:39:03;4.82;;;2.58;;
69083;SDS011;56185;48.526;9.044;2023-07-29T01:41:29;5.13;;;2.67;;
69083;SDS011;56185;48.526;9.044;2023-07-29T01:43:54;6.60;;;2.53;;
69083;SDS011;56185;48.526;9.044;2023-07-29T01:46:21;2.88;;;2.10;;
69083;SDS011;56185;48.526;9.044;2023-07-29T01:48:46;5.38;;;2.38;;
69083;SDS011;56185;48.526;9.044;2023-07-29T01:51:11;5.07;;;2.00;;
69083;SDS011;56185;48.526;9.044;2023-07-29T01:53:37;4.25;;;1.98;;
69083;SDS011;56185;48.526;9.044;2023-07-29T01:56:02;4.43;;;1.90;;
69083;SDS011;56185;48.526;9.044;2023-07-29T01:58:28;4.10;;;1.90;;
69083;SDS011;56185;48.526;9.044;2023-07-29T02:00:53;4.43;;;1.87;;
69083;SDS011;56185;48.526;9.044;2023-07-29T02:03:18;4.00;;;2.07;;
69083;SDS011;56185;48.526;9.044;2023-07-29T02:05:43;6.43;;;2.25;;
69083;SDS011;56185;48.526;9.044;2023-07-29T02:08:09;5.57;;;2.15;;
69083;SDS011;56185;48.526;9.044;2023-07-29T02:10:35;5.15;;;1.90;;
69083;SDS011;56185;48.526;9.044;2023-07-29T02:13:00;4.00;;;2.15;;
69083;SDS011;56185;48.526;9.044;2023-07-29T02:15:25;6.25;;;2.13;;
69083;SDS011;56185;48.526;9.044;2023-07-29T02:17:51;3.70;;;2.13;;
69083;SDS011;56185;48.526;9.044;2023-07-29T02:20:16;8.02;;;2.20;;
69083;SDS011;56185;48.526;9.044;2023-07-29T02:22:41;3.27;;;2.17;;
69083;SDS011;56185;48.526;9.044;2023-07-29T02:25:06;8.33;;;2.80;;
69083;SDS011;56185;48.526;9.044;2023-07-29T02:27:32;19.50;;;3.30;;
69083;SDS011;56185;48.526;9.044;2023-07-29T02:29:57;23.17;;;3.00;;
69083;SDS011;56185;48.526;9.044;2023-07-29T02:32:22;27.30;;;3.40;;
69083;SDS011;56185;48.526;9.044;2023-07-29T02:34:48;9.18;;;2.95;;
69083;SDS011;56185;48.526;9.044;2023-07-29T02:37:14;4.80;;;2.85;;
69083;SDS011;56185;48.526;9.044;2023-07-29T02:39:39;4.27;;;2.60;;
69083;SDS011;56185;48.526;9.044;2023-07-29T02:42:04;4.63;;;2.10;;
69083;SDS011;56185;48.526;9.044;2023-07-29T02:44:29;3.70;;;2.20;;
69083;SDS011;56185;48.526;9.044;2023-07-29T02:46:55;5.10;;;2.63;;
69083;SDS011;56185;48.526;9.044;2023-07-29T02:49:20;3.00;;;2.10;;
69083;SDS011;56185;48.526;9.044;2023-07-29T02:51:45;4.37;;;2.30;;
69083;SDS011;56185;48.526;9.044;2023-07-29T02:54:10;7.07;;;2.37;;
69083;SDS011;56185;48.526;9.044;2023-07-29T02:56:35;4.23;;;2.33;;
69083;SDS011;56185;48.526;9.044;2023-07-29T02:59:01;3.33;;;2.00;;
69083;SDS011;56185;48.526;9.044;2023-07-29T03:01:26;2.58;;;1.90;;
69083;SDS011;56185;48.526;9.044;2023-07-29T03:03:51;4.43;;;2.40;;
69083;SDS011;56185;48.526;9.044;2023-07-29T03:06:17;6.32;;;2.20;;
69083;SDS011;56185;48.526;9.044;2023-07-29T03:08:42;7.90;;;2.97;;
69083;SDS011;56185;48.526;9.044;2023-07-29T03:11:08;3.10;;;2.53;;
69083;SDS011;56185;48.526;9.044;2023-07-29T03:13:35;5.60;;;2.70;;
69083;SDS011;56185;48.526;9.044;2023-07-29T03:16:04;4.55;;;2.88;;
69083;SDS011;56185;48.526;9.044;2023-07-29T03:18:30;6.05;;;4.10;;
69083;SDS011;56185;48.526;9.044;2023-07-29T03:20:55;11.67;;;4.90;;
69083;SDS011;56185;48.526;9.044;2023-07-29T03:23:21;6.28;;;4.50;;
69083;SDS011;56185;48.526;9.044;2023-07-29T03:25:48;11.33;;;4.53;;
69083;SDS011;56185;48.526;9.044;2023-07-29T03:28:14;7.55;;;4.55;;
69083;SDS011;56185;48.526;9.044;2023-07-29T03:30:39;12.57;;;4.22;;
69083;SDS011;56185;48.526;9.044;2023-07-29T03:33:04;7.07;;;4.30;;
69083;SDS011;56185;48.526;9.044;2023-07-29T03:35:29;6.73;;;4.17;;
69083;SDS011;56185;48.526;9.044;2023-07-29T03:37:55;6.20;;;4.20;;
69083;SDS011;56185;48.526;9.044;2023-07-29T03:40:20;7.27;;;4.40;;
69083;SDS011;56185;48.526;9.044;2023-07-29T03:42:45;8.18;;;4.80;;
69083;SDS011;56185;48.526;9.044;2023-07-29T03:45:11;6.80;;;4.57;;
69083;SDS011;56185;48.526;9.044;2023-07-29T03:47:36;7.87;;;4.23;;
69083;SDS011;56185;48.526;9.044;2023-07-29T03:50:01;8.13;;;4.13;;
69083;SDS011;56185;48.526;9.044;2023-07-29T03:52:26;10.40;;;4.40;;
69083;SDS011;56185;48.526;9.044;2023-07-29T03:54:52;6.80;;;4.20;;
69083;SDS011;56185;48.526;9.044;2023-07-29T03:57:17;6.57;;;4.25;;
69083;SDS011;56185;48.526;9.044;2023-07-29T03:59:42;10.13;;;4.73;;
69083;SDS011;56185;48.526;9.044;2023-07-29T04:02:07;6.80;;;4.03;;
69083;SDS011;56185;48.526;9.044;2023-07-29T04:04:33;11.30;;;4.03;;
69083;SDS011;56185;48.526;9.044;2023-07-29T04:06:58;5.97;;;4.17;;
69083;SDS011;56185;48.526;9.044;2023-07-29T04:09:23;4.60;;;3.50;;
69083;SDS011;56185;48.526;9.044;2023-07-29T04:11:48;8.40;;;3.40;;
69083;SDS011;56185;48.526;9.044;2023-07-29T04:14:14;7.72;;;3.80;;
69083;SDS011;56185;48.526;9.044;2023-07-29T04:16:39;5.47;;;4.10;;
69083;SDS011;56185;48.526;9.044;2023-07-29T04:19:04;6.50;;;3.97;;
69083;SDS011;56185;48.526;9.044;2023-07-29T04:21:29;6.33;;;4.00;;
69083;SDS011;56185;48.526;9.044;2023-07-29T04:23:55;5.27;;;4.10;;
69083;SDS011;56185;48.526;9.044;2023-07-29T04:26:20;8.23;;;4.50;;
69083;SDS011;56185;48.526;9.044;2023-07-29T04:28:45;7.83;;;4.23;;
69083;SDS011;56185;48.526;9.044;2023-07-29T04:31:10;7.53;;;4.22;;
69083;SDS011;56185;48.526;9.044;2023-07-29T04:33:36;6.17;;;4.33;;
69083;SDS011;56185;48.526;9.044;2023-07-29T04:36:01;6.23;;;3.80;;
69083;SDS011;56185;48.526;9.044;2023-07-29T04:38:30;4.10;;;3.43;;
69083;SDS011;56185;48.526;9.044;2023-07-29T04:40:57;5.25;;;3.33;;
69083;SDS011;56185;48.526;9.044;2023-07-29T04:43:22;5.20;;;3.30;;
69083;SDS011;56185;48.526;9.044;2023-07-29T04:45:47;4.57;;;3.20;;
69083;SDS011;56185;48.526;9.044;2023-07-29T04:48:13;7.67;;;3.20;;
69083;SDS011;56185;48.526;9.044;2023-07-29T04:50:38;5.20;;;2.83;;
69083;SDS011;56185;48.526;9.044;2023-07-29T04:53:03;3.83;;;3.10;;
69083;SDS011;56185;48.526;9.044;2023-07-29T04:55:28;7.00;;;3.70;;
69083;SDS011;56185;48.526;9.044;2023-07-29T04:57:53;4.38;;;2.72;;
69083;SDS011;56185;48.526;9.044;2023-07-29T05:00:19;5.87;;;2.60;;
69083;SDS011;56185;48.526;9.044;2023-07-29T05:02:44;9.70;;;2.90;;
69083;SDS011;56185;48.526;9.044;2023-07-29T05:05:09;11.20;;;2.80;;
69083;SDS011;56185;48.526;9.044;2023-07-29T05:07:34;5.27;;;2.00;;
69083;SDS011;56185;48.526;9.044;2023-07-29T05:10:00;5.97;;;2.00;;
69083;SDS011;56185;48.526;9.044;2023-07-29T05:12:25;5.53;;;2.53;;
69083;SDS011;56185;48.526;9.044;2023-07-29T05:14:50;6.33;;;2.73;;
69083;SDS011;56185;48.526;9.044;2023-07-29T05:17:15;4.32;;;2.78;;
69083;SDS011;56185;48.526;9.044;2023-07-29T05:19:41;4.47;;;2.67;;
69083;SDS011;56185;48.526;9.044;2023-07-29T05:22:06;7.93;;;3.20;;
69083;SDS011;56185;48.526;9.044;2023-07-29T05:24:31;4.70;;;2.47;;
69083;SDS011;56185;48.526;9.044;2023-07-29T05:26:57;5.72;;;2.60;;
69083;SDS011;56185;48.526;9.044;2023-07-29T05:29:23;5.63;;;2.97;;
69083;SDS011;56185;48.526;9.044;2023-07-29T05:31:48;4.60;;;3.03;;
69083;SDS011;56185;48.526;9.044;2023-07-29T05:34:14;7.83;;;2.90;;
69083;SDS011;56185;48.526;9.044;2023-07-29T05:36:39;6.55;;;2.90;;
69083;SDS011;56185;48.526;9.044;2023-07-29T05:39:05;5.97;;;2.60;;
69083;SDS011;56185;48.526;9.044;2023-07-29T05:41:30;8.13;;;2.43;;
69083;SDS011;56185;48.526;9.044;2023-07-29T05:43:55;5.10;;;2.60;;
69083;SDS011;56185;48.526;9.044;2023-07-29T05:46:20;4.00;;;2.30;;
69083;SDS011;56185;48.526;9.044;2023-07-29T05:48:46;3.33;;;2.30;;
69083;SDS011;56185;48.526;9.044;2023-07-29T05:51:11;4.47;;;2.60;;
69083;SDS011;56185;48.526;9.044;2023-07-29T05:53:38;5.97;;;2.53;;
69083;SDS011;56185;48.526;9.044;2023-07-29T05:56:05;5.68;;;2.70;;
69083;SDS011;56185;48.526;9.044;2023-07-29T05:58:31;8.82;;;2.60;;
69083;SDS011;56185;48.526;9.044;2023-07-29T06:00:56;3.00;;;2.40;;
69083;SDS011;56185;48.526;9.044;2023-07-29T06:03:22;3.42;;;2.50;;
69083;SDS011;56185;48.526;9.044;2023-07-29T06:05:48;4.45;;;2.83;;
69083;SDS011;56185;48.526;9.044;2023-07-29T06:08:16;5.25;;;2.50;;
69083;SDS011;56185;48.526;9.044;2023-07-29T06:10:41;3.40;;;2.50;;
69083;SDS011;56185;48.526;9.044;2023-07-29T06:13:07;4.78;;;2.40;;
69083;SDS011;56185;48.526;9.044;2023-07-29T06:15:33;3.22;;;1.92;;
69083;SDS011;56185;48.526;9.044;2023-07-29T06:17:59;6.53;;;2.50;;
69083;SDS011;56185;48.526;9.044;2023-07-29T06:20:24;4.22;;;2.67;;
69083;SDS011;56185;48.526;9.044;2023-07-29T06:22:49;3.83;;;2.50;;
69083;SDS011;56185;48.526;9.044;2023-07-29T06:25:15;3.47;;;2.80;;
69083;SDS011;56185;48.526;9.044;2023-07-29T06:27:40;3.60;;;2.30;;
69083;SDS011;56185;48.526;9.044;2023-07-29T06:30:05;6.20;;;2.47;;
69083;SDS011;56185;48.526;9.044;2023-07-29T06:32:31;4.75;;;2.45;;
69083;SDS011;56185;48.526;9.044;2023-07-29T06:34:56;2.90;;;2.25;;
69083;SDS011;56185;48.526;9.044;2023-07-29T06:37:22;4.27;;;2.23;;
69083;SDS011;56185;48.526;9.044;2023-07-29T06:39:47;3.60;;;2.67;;
69083;SDS011;56185;48.526;9.044;2023-07-29T06:42:13;4.37;;;2.00;;
69083;SDS011;56185;48.526;9.044;2023-07-29T06:44:39;4.97;;;2.40;;
69083;SDS011;56185;48.526;9.044;2023-07-29T06:47:06;4.82;;;2.22;;
69083;SDS011;56185;48.526;9.044;2023-07-29T06:49:31;3.95;;;2.10;;
69083;SDS011;56185;48.526;9.044;2023-07-29T06:51:56;4.17;;;2.40;;
69083;SDS011;56185;48.526;9.044;2023-07-29T06:54:25;8.73;;;3.65;;
69083;SDS011;56185;48.526;9.044;2023-07-29T06:56:50;6.03;;;2.30;;
69083;SDS011;56185;48.526;9.044;2023-07-29T06:59:17;5.15;;;2.38;;
69083;SDS011;56185;48.526;9.044;2023-07-29T07:01:42;5.70;;;2.63;;
69083;SDS011;56185;48.526;9.044;2023-07-29T07:04:07;7.10;;;2.33;;
69083;SDS011;56185;48.526;9.044;2023-07-29T07:06:32;4.27;;;2.07;;
69083;SDS011;56185;48.526;9.044;2023-07-29T07:08:57;3.97;;;2.00;;
69083;SDS011;56185;48.526;9.044;2023-07-29T07:11:23;4.00;;;2.33;;
69083;SDS011;56185;48.526;9.044;2023-07-29T07:13:48;8.23;;;2.27;;
69083;SDS011;56185;48.526;9.044;2023-07-29T07:16:13;4.17;;;2.83;;
69083;SDS011;56185;48.526;9.044;2023-07-29T07:18:38;5.47;;;2.87;;
69083;SDS011;56185;48.526;9.044;2023-07-29T07:21:04;5.63;;;2.60;;
69083;SDS011;56185;48.526;9.044;2023-07-29T07:23:29;6.17;;;2.70;;
69083;SDS011;56185;48.526;9.044;2023-07-29T07:25:54;5.50;;;2.30;;
69083;SDS011;56185;48.526;9.044;2023-07-29T07:28:19;5.80;;;2.47;;
69083;SDS011;56185;48.526;9.044;2023-07-29T07:30:44;6.63;;;2.43;;
69083;SDS011;56185;48.526;9.044;2023-07-29T07:33:10;4.00;;;2.23;;
69083;SDS011;56185;48.526;9.044;2023-07-29T07:35:35;3.90;;;2.83;;
69083;SDS011;56185;48.526;9.044;2023-07-29T07:38:01;3.90;;;2.38;;
69083;SDS011;56185;48.526;9.044;2023-07-29T07:40:26;3.67;;;2.47;;
69083;SDS011;56185;48.526;9.044;2023-07-29T07:42:51;6.07;;;2.80;;
69083;SDS011;56185;48.526;9.044;2023-07-29T07:45:16;5.60;;;2.63;;
69083;SDS011;56185;48.526;9.044;2023-07-29T07:47:41;3.77;;;2.47;;
69083;SDS011;56185;48.526;9.044;2023-07-29T07:50:09;5.17;;;2.80;;
69083;SDS011;56185;48.526;9.044;2023-07-29T07:52:36;4.85;;;2.75;;
69083;SDS011;56185;48.526;9.044;2023-07-29T07:55:03;3.58;;;2.85;;
69083;SDS011;56185;48.526;9.044;2023-07-29T07:57:29;3.75;;;2.83;;
69083;SDS011;56185;48.526;9.044;2023-07-29T07:59:57;6.00;;;2.83;;
69083;SDS011;56185;48.526;9.044;2023-07-29T08:02:27;5.25;;;2.88;;
69083;SDS011;56185;48.526;9.044;2023-07-29T08:04:52;6.32;;;2.88;;
69083;SDS011;56185;48.526;9.044;2023-07-29T08:07:17;4.77;;;2.73;;
69083;SDS011;56185;48.526;9.044;2023-07-29T08:09:43;5.23;;;2.50;;
69083;SDS011;56185;48.526;9.044;2023-07-29T08:12:09;5.32;;;2.63;;
69083;SDS011;56185;48.526;9.044;2023-07-29T08:14:34;4.60;;;2.93;;
69083;SDS011;56185;48.526;9.044;2023-07-29T08:16:59;3.37;;;2.40;;
69083;SDS011;56185;48.526;9.044;2023-07-29T08:19:24;3.67;;;2.60;;
69083;SDS011;56185;48.526;9.044;2023-07-29T08:21:50;4.80;;;2.70;;
69083;SDS011;56185;48.526;9.044;2023-07-29T08:24:15;5.17;;;2.80;;
69083;SDS011;56185;48.526;9.044;2023-07-29T08:26:40;5.00;;;2.60;;
69083;SDS011;56185;48.526;9.044;2023-07-29T08:29:05;3.00;;;2.40;;
69083;SDS011;56185;48.526;9.044;2023-07-29T08:31:31;4.03;;;2.60;;
69083;SDS011;56185;48.526;9.044;2023-07-29T08:33:56;4.85;;;2.58;;
69083;SDS011;56185;48.526;9.044;2023-07-29T08:36:21;3.80;;;2.37;;
69083;SDS011;56185;48.526;9.044;2023-07-29T08:38:47;4.97;;;2.78;;
69083;SDS011;56185;48.526;9.044;2023-07-29T08:44:05;4.55;;;3.03;;
69083;SDS011;56185;48.526;9.044;2023-07-29T08:46:34;4.30;;;2.90;;
69083;SDS011;56185;48.526;9.044;2023-07-29T08:49:00;4.32;;;2.50;;
69083;SDS011;56185;48.526;9.044;2023-07-29T08:51:27;3.50;;;2.20;;
69083;SDS011;56185;48.526;9.044;2023-07-29T08:53:56;3.53;;;2.22;;
69083;SDS011;56185;48.526;9.044;2023-07-29T08:56:21;2.97;;;2.17;;
69083;SDS011;56185;48.526;9.044;2023-07-29T08:58:49;3.45;;;2.40;;
69083;SDS011;56185;48.526;9.044;2023-07-29T09:01:18;4.93;;;2.17;;
69083;SDS011;56185;48.526;9.044;2023-07-29T09:03:44;2.80;;;2.05;;
69083;SDS011;56185;48.526;9.044;2023-07-29T09:06:09;2.73;;;1.90;;
69083;SDS011;56185;48.526;9.044;2023-07-29T09:08:34;2.97;;;2.03;;
69083;SDS011;56185;48.526;9.044;2023-07-29T09:11:00;2.80;;;2.00;;
69083;SDS011;56185;48.526;9.044;2023-07-29T09:13:26;2.95;;;2.05;;
69083;SDS011;56185;48.526;9.044;2023-07-29T09:15:54;3.17;;;2.05;;
69083;SDS011;56185;48.526;9.044;2023-07-29T09:18:30;4.57;;;2.00;;
69083;SDS011;56185;48.526;9.044;2023-07-29T09:21:10;3.80;;;2.20;;
69083;SDS011;56185;48.526;9.044;2023-07-29T09:23:42;4.28;;;1.90;;
69083;SDS011;56185;48.526;9.044;2023-07-29T09:26:09;3.45;;;2.00;;
69083;SDS011;56185;48.526;9.044;2023-07-29T09:28:36;3.33;;;2.00;;
69083;SDS011;56185;48.526;9.044;2023-07-29T09:31:02;2.50;;;2.10;;
69083;SDS011;56185;48.526;9.044;2023-07-29T09:33:36;3.90;;;2.35;;
69083;SDS011;56185;48.526;9.044;2023-07-29T09:36:03;4.05;;;1.92;;
69083;SDS011;56185;48.526;9.044;2023-07-29T09:38:35;3.05;;;1.83;;
69083;SDS011;56185;48.526;9.044;2023-07-29T09:41:01;3.03;;;1.90;;
69083;SDS011;56185;48.526;9.044;2023-07-29T09:43:30;3.53;;;1.80;;
69083;SDS011;56185;48.526;9.044;2023-07-29T09:46:18;2.22;;;1.80;;
69083;SDS011;56185;48.526;9.044;2023-07-29T09:48:43;3.47;;;1.90;;
69083;SDS011;56185;48.526;9.044;2023-07-29T09:51:11;3.20;;;1.97;;
69083;SDS011;56185;48.526;9.044;2023-07-29T09:53:45;3.50;;;1.95;;
69083;SDS011;56185;48.526;9.044;2023-07-29T09:56:11;4.30;;;2.10;;
69083;SDS011;56185;48.526;9.044;2023-07-29T09:58:37;3.58;;;1.90;;
69083;SDS011;56185;48.526;9.044;2023-07-29T10:01:11;4.50;;;2.00;;
69083;SDS011;56185;48.526;9.044;2023-07-29T10:03:36;2.30;;;1.83;;
69083;SDS011;56185;48.526;9.044;2023-07-29T10:06:02;3.05;;;1.80;;
69083;SDS011;56185;48.526;9.044;2023-07-29T10:08:31;3.05;;;1.90;;
69083;SDS011;56185;48.526;9.044;2023-07-29T10:11:01;3.17;;;1.88;;
69083;SDS011;56185;48.526;9.044;2023-07-29T10:13:27;3.72;;;2.10;;
69083;SDS011;56185;48.526;9.044;2023-07-29T10:15:53;5.75;;;2.30;;
69083;SDS011;56185;48.526;9.044;2023-07-29T10:18:19;3.83;;;2.42;;
69083;SDS011;56185;48.526;9.044;2023-07-29T10:20:46;3.78;;;1.85;;
69083;SDS011;56185;48.526;9.044;2023-07-29T10:23:14;2.95;;;2.05;;
69083;SDS011;56185;48.526;9.044;2023-07-29T10:25:43;4.32;;;1.90;;
69083;SDS011;56185;48.526;9.044;2023-07-29T10:28:14;2.72;;;1.88;;
69083;SDS011;56185;48.526;9.044;2023-07-29T10:30:40;4.43;;;1.90;;
69083;SDS011;56185;48.526;9.044;2023-07-29T10:33:06;2.90;;;2.03;;
69083;SDS011;56185;48.526;9.044;2023-07-29T10:35:34;3.08;;;2.00;;
69083;SDS011;56185;48.526;9.044;2023-07-29T10:38:01;2.88;;;1.95;;
69083;SDS011;56185;48.526;9.044;2023-07-29T10:40:43;4.63;;;2.15;;
69083;SDS011;56185;48.526;9.044;2023-07-29T10:43:10;2.75;;;1.80;;
69083;SDS011;56185;48.526;9.044;2023-07-29T10:45:37;2.33;;;1.73;;
69083;SDS011;56185;48.526;9.044;2023-07-29T10:53:53;3.55;;;2.10;;
69083;SDS011;56185;48.526;9.044;2023-07-29T10:56:27;5.30;;;1.90;;
69083;SDS011;56185;48.526;9.044;2023-07-29T10:58:57;2.90;;;1.80;;
69083;SDS011;56185;48.526;9.044;2023-07-29T11:01:27;2.95;;;1.88;;
69083;SDS011;56185;48.526;9.044;2023-07-29T11:04:00;3.55;;;1.90;;
69083;SDS011;56185;48.526;9.044;2023-07-29T11:17:34;2.90;;;1.90;;
69083;SDS011;56185;48.526;9.044;2023-07-29T11:20:01;4.97;;;1.70;;
69083;SDS011;56185;48.526;9.044;2023-07-29T11:22:27;4.05;;;1.70;;
69083;SDS011;56185;48.526;9.044;2023-07-29T11:24:53;2.58;;;1.75;;
69083;SDS011;56185;48.526;9.044;2023-07-29T11:27:18;3.17;;;1.70;;
69083;SDS011;56185;48.526;9.044;2023-07-29T11:29:44;3.13;;;1.83;;
69083;SDS011;56185;48.526;9.044;2023-07-29T11:32:09;2.87;;;1.60;;
69083;SDS011;56185;48.526;9.044;2023-07-29T11:34:34;2.80;;;1.60;;
69083;SDS011;56185;48.526;9.044;2023-07-29T11:37:00;3.53;;;1.80;;
69083;SDS011;56185;48.526;9.044;2023-07-29T11:39:25;4.53;;;1.70;;
69083;SDS011;56185;48.526;9.044;2023-07-29T11:41:50;3.20;;;1.67;;
69083;SDS011;56185;48.526;9.044;2023-07-29T11:44:19;2.63;;;1.55;;
69083;SDS011;56185;48.526;9.044;2023-07-29T11:46:44;4.10;;;1.48;;
69083;SDS011;56185;48.526;9.044;2023-07-29T11:49:09;2.20;;;1.48;;
69083;SDS011;56185;48.526;9.044;2023-07-29T11:51:38;2.53;;;1.55;;
69083;SDS011;56185;48.526;9.044;2023-07-29T11:54:03;3.58;;;1.50;;
69083;SDS011;56185;48.526;9.044;2023-07-29T11:56:29;2.43;;;1.40;;
69083;SDS011;56185;48.526;9.044;2023-07-29T11:58:54;2.97;;;1.50;;
69083;SDS011;56185;48.526;9.044;2023-07-29T12:01:20;2.22;;;1.50;;
69083;SDS011;56185;48.526;9.044;2023-07-29T12:03:47;3.03;;;1.50;;
69083;SDS011;56185;48.526;9.044;2023-07-29T12:06:12;2.13;;;1.60;;
69083;SDS011;56185;48.526;9.044;2023-07-29T12:08:38;2.70;;;1.52;;
69083;SDS011;56185;48.526;9.044;2023-07-29T12:11:03;2.30;;;1.70;;
69083;SDS011;56185;48.526;9.044;2023-07-29T12:13:29;2.97;;;1.70;;
69083;SDS011;56185;48.526;9.044;2023-07-29T12:16:00;4.53;;;1.70;;
69083;SDS011;56185;48.526;9.044;2023-07-29T12:18:30;2.78;;;1.48;;
69083;SDS011;56185;48.526;9.044;2023-07-29T12:20:56;2.22;;;1.60;;
69083;SDS011;56185;48.526;9.044;2023-07-29T12:23:24;2.53;;;1.47;;
69083;SDS011;56185;48.526;9.044;2023-07-29T12:25:50;2.30;;;1.40;;
69083;SDS011;56185;48.526;9.044;2023-07-29T12:28:22;2.70;;;1.80;;
69083;SDS011;56185;48.526;9.044;2023-07-29T12:30:48;2.38;;;1.60;;
69083;SDS011;56185;48.526;9.044;2023-07-29T12:33:33;2.45;;;1.30;;
69083;SDS011;56185;48.526;9.044;2023-07-29T12:36:00;2.15;;;1.60;;
69083;SDS011;56185;48.526;9.044;2023-07-29T12:38:26;2.70;;;1.70;;
69083;SDS011;56185;48.526;9.044;2023-07-29T12:40:55;3.78;;;1.50;;
69083;SDS011;56185;48.526;9.044;2023-07-29T12:43:22;1.92;;;1.48;;
69083;SDS011;56185;48.526;9.044;2023-07-29T12:45:50;2.58;;;1.70;;
69083;SDS011;56185;48.526;9.044;2023-07-29T12:48:16;2.20;;;1.70;;
69083;SDS011;56185;48.526;9.044;2023-07-29T12:50:41;2.30;;;1.60;;
69083;SDS011;56185;48.526;9.044;2023-07-29T12:53:07;2.45;;;1.45;;
69083;SDS011;56185;48.526;9.044;2023-07-29T12:55:34;2.03;;;1.40;;
69083;SDS011;56185;48.526;9.044;2023-07-29T12:57:59;2.38;;;1.50;;
69083;SDS011;56185;48.526;9.044;2023-07-29T13:00:25;2.13;;;1.57;;
69083;SDS011;56185;48.526;9.044;2023-07-29T13:02:50;2.35;;;1.50;;
69083;SDS011;56185;48.526;9.044;2023-07-29T13:05:16;2.15;;;1.50;;
69083;SDS011;56185;48.526;9.044;2023-07-29T13:07:42;2.90;;;1.63;;
69083;SDS011;56185;48.526;9.044;2023-07-29T13:10:08;2.70;;;1.63;;
69083;SDS011;56185;48.526;9.044;2023-07-29T13:12:34;3.25;;;1.75;;
69083;SDS011;56185;48.526;9.044;2023-07-29T13:14:59;2.30;;;1.70;;
69083;SDS011;56185;48.526;9.044;2023-07-29T13:17:24;2.20;;;1.50;;
69083;SDS011;56185;48.526;9.044;2023-07-29T13:19:50;2.10;;;1.47;;
69083;SDS011;56185;48.526;9.044;2023-07-29T13:22:15;2.47;;;1.52;;
69083;SDS011;56185;48.526;9.044;2023-07-29T13:24:43;3.67;;;1.45;;
69083;SDS011;56185;48.526;9.044;2023-07-29T13:27:09;2.00;;;1.42;;
69083;SDS011;56185;48.526;9.044;2023-07-29T13:29:34;2.30;;;1.30;;
69083;SDS011;56185;48.526;9.044;2023-07-29T13:31:59;2.00;;;1.40;;
69083;SDS011;56185;48.526;9.044;2023-07-29T13:34:24;2.53;;;1.50;;
69083;SDS011;56185;48.526;9.044;2023-07-29T13:36:50;1.93;;;1.40;;
69083;SDS011;56185;48.526;9.044;2023-07-29T13:39:15;2.87;;;1.40;;
69083;SDS011;56185;48.526;9.044;2023-07-29T13:41:40;2.08;;;1.40;;
69083;SDS011;56185;48.526;9.044;2023-07-29T13:44:06;2.63;;;1.65;;
69083;SDS011;56185;48.526;9.044;2023-07-29T13:46:31;2.47;;;1.67;;
69083;SDS011;56185;48.526;9.044;2023-07-29T13:48:57;2.45;;;1.50;;
69083;SDS011;56185;48.526;9.044;2023-07-29T13:51:22;1.95;;;1.40;;
69083;SDS011;56185;48.526;9.044;2023-07-29T13:53:47;2.25;;;1.52;;
69083;SDS011;56185;48.526;9.044;2023-07-29T13:56:12;2.40;;;1.40;;
69083;SDS011;56185;48.526;9.044;2023-07-29T13:58:38;1.90;;;1.50;;
69083;SDS011;56185;48.526;9.044;2023-07-29T14:01:03;2.10;;;1.50;;
69083;SDS011;56185;48.526;9.044;2023-07-29T14:03:28;2.10;;;1.52;;
69083;SDS011;56185;48.526;9.044;2023-07-29T14:05:53;1.80;;;1.30;;
69083;SDS011;56185;48.526;9.044;2023-07-29T14:08:19;2.00;;;1.50;;
69083;SDS011;56185;48.526;9.044;2023-07-29T14:10:44;2.83;;;1.43;;
69083;SDS011;56185;48.526;9.044;2023-07-29T14:13:09;2.53;;;1.50;;
69083;SDS011;56185;48.526;9.044;2023-07-29T14:15:36;2.97;;;2.10;;
69083;SDS011;56185;48.526;9.044;2023-07-29T14:18:01;3.63;;;1.63;;
69083;SDS011;56185;48.526;9.044;2023-07-29T14:20:26;2.97;;;1.40;;
69083;SDS011;56185;48.526;9.044;2023-07-29T14:22:51;2.00;;;1.40;;
69083;SDS011;56185;48.526;9.044;2023-07-29T14:25:17;2.47;;;1.53;;
69083;SDS011;56185;48.526;9.044;2023-07-29T14:27:42;1.92;;;1.50;;
69083;SDS011;56185;48.526;9.044;2023-07-29T14:30:07;2.20;;;1.60;;
69083;SDS011;56185;48.526;9.044;2023-07-29T14:32:33;2.00;;;1.48;;
69083;SDS011;56185;48.526;9.044;2023-07-29T14:34:58;2.47;;;1.30;;
69083;SDS011;56185;48.526;9.044;2023-07-29T14:37:23;3.10;;;1.63;;
69083;SDS011;56185;48.526;9.044;2023-07-29T14:39:49;2.63;;;1.50;;
69083;SDS011;56185;48.526;9.044;2023-07-29T14:42:14;3.13;;;1.77;;
69083;SDS011;56185;48.526;9.044;2023-07-29T14:44:39;2.23;;;1.40;;
69083;SDS011;56185;48.526;9.044;2023-07-29T14:47:04;2.73;;;1.50;;
69083;SDS011;56185;48.526;9.044;2023-07-29T14:49:30;2.70;;;1.40;;
69083;SDS011;56185;48.526;9.044;2023-07-29T14:51:55;1.90;;;1.40;;
69083;SDS011;56185;48.526;9.044;2023-07-29T14:54:21;2.10;;;1.60;;
69083;SDS011;56185;48.526;9.044;2023-07-29T14:56:46;3.10;;;1.63;;
69083;SDS011;56185;48.526;9.044;2023-07-29T14:59:11;2.20;;;1.50;;
69083;SDS011;56185;48.526;9.044;2023-07-29T15:01:36;2.77;;;1.50;;
69083;SDS011;56185;48.526;9.044;2023-07-29T15:04:02;3.87;;;1.50;;
69083;SDS011;56185;48.526;9.044;2023-07-29T15:06:27;2.10;;;1.40;;